M I D A S
Marine Information and Data Acquisition System
Tripno 2031 of the Zeeleeuw from 2011-01-14 07:38:52 to 2011-01-14 15:06:52
Back to CruiseResearch ActivitiesStationsMapUnderway DataData graphs

EquipmentUnitsComments
TimeDGPSUTC
LatitudeDGPSDM.mWGS84
LongitudeDGPSDM.mWGS84
SpeedMeteo Stationm/sRelative wind speed
DirectionMeteo StationdegRelative wind direction
TemperatureMeteo Stationdeg CelciusAir temperature
PressureMeteo StationPaAtmospheric pressure
HumidityMeteo Station%Relative humidity
Missing or incorrect values are displayed as -999
Metereological data collected by the RV Zeeleeuw from 2011-01-14 07:43:22 to 2011-01-14 15:16:46
Time Latitude Longitude Speed Direction Temperature Pressure Humidity
2011-01-14 07:44 51°13.683 2°55.872 7.3 26 10.5 101100 53
2011-01-14 07:45 51°13.698 2°55.782 8.1 39 10.5 101100 54
2011-01-14 07:46 51°13.703 2°55.761 5.4 43 10.6 101100 55
2011-01-14 07:47 51°13.705 2°55.742 0.7 29 10.6 101100 56
2011-01-14 07:48 51°13.749 2°55.711 -999 333 10.6 101110 54
2011-01-14 07:49 51°13.845 2°55.619 5.9 27 10.6 101120 53
2011-01-14 07:50 51°13.995 2°55.515 5.1 21 10.7 101140 53
2011-01-14 07:51 51°14.151 2°55.405 3.7 21 10.7 101130 54
2011-01-14 07:52 51°14.303 2°55.251 10.6 249 10.7 101150 54
2011-01-14 07:53 51°14.468 2°55.1 11.7 250 10.7 101130 54
2011-01-14 07:54 51°14.651 2°54.987 10.7 250 10.6 101130 53
2011-01-14 07:55 51°14.863 2°54.909 12.2 254 10.4 101090 54
2011-01-14 07:56 51°15.081 2°54.819 11.4 22 10.3 101090 52
2011-01-14 07:57 51°15.273 2°54.663 11.6 19 10.1 101080 53
2011-01-14 07:58 51°15.437 2°54.453 21 23 9.9 101060 52
2011-01-14 07:59 51°15.598 2°54.237 11.9 23 9.8 101060 52
2011-01-14 08:00 51°15.759 2°54.022 6.6 24 9.7 101070 52
2011-01-14 08:01 51°15.918 2°53.805 13.1 24 9.5 101070 52
2011-01-14 08:02 51°16.086 2°53.602 14.6 246 9.4 101050 52
2011-01-14 08:03 51°16.255 2°53.403 13.7 23 9.3 101050 52
2011-01-14 08:04 51°16.424 2°53.207 13.4 26 9.2 101070 52
2011-01-14 08:05 51°16.607 2°53.028 11.9 22 9.2 101050 52
2011-01-14 08:06 51°16.79 2°52.857 11.4 23 9.1 101050 53
2011-01-14 08:07 51°16.976 2°52.686 11.8 22 9 101050 52
2011-01-14 08:08 51°17.188 2°52.598 9.1 257 9.1 101070 51
2011-01-14 08:09 51°17.41 2°52.554 10 258 9 101080 51
2011-01-14 08:10 51°17.633 2°52.532 12.3 258 8.9 101070 52
2011-01-14 08:11 51°17.855 2°52.495 8.9 251 8.9 101080 53
2011-01-14 08:12 51°18.079 2°52.465 8.9 257 8.8 101080 53
2011-01-14 08:13 51°18.302 2°52.435 8.3 258 8.8 101080 53
2011-01-14 08:14 51°18.526 2°52.404 9.1 256 8.7 101080 53
2011-01-14 08:15 51°18.749 2°52.374 7.9 256 8.7 101070 53
2011-01-14 08:16 51°18.973 2°52.345 7.5 259 8.6 101070 51
2011-01-14 08:17 51°19.199 2°52.331 10.4 255 8.6 101080 52
2011-01-14 08:18 51°19.424 2°52.305 10.8 254 8.6 101080 52
2011-01-14 08:19 51°19.649 2°52.284 7.7 255 8.6 101090 53
2011-01-14 08:20 51°19.873 2°52.262 8.4 256 8.6 101080 53
2011-01-14 08:21 51°20.096 2°52.237 8.7 253 8.6 101080 53
2011-01-14 08:22 51°20.32 2°52.219 7.9 259 8.5 101080 52
2011-01-14 08:23 51°20.543 2°52.197 10.3 253 8.5 101060 51
2011-01-14 08:24 51°20.764 2°52.185 6.1 262 8.5 101070 52
2011-01-14 08:25 51°20.989 2°52.207 8 259 8.5 101070 52
2011-01-14 08:26 51°21.214 2°52.228 4.8 261 8.5 101070 52
2011-01-14 08:27 51°21.441 2°52.246 8.6 255 8.5 101060 52
2011-01-14 08:28 51°21.669 2°52.272 9.9 257 8.5 101070 52
2011-01-14 08:29 51°21.899 2°52.298 7.4 260 8.4 101080 52
2011-01-14 08:30 51°22.127 2°52.31 8.5 260 8.4 101060 53
2011-01-14 08:31 51°22.356 2°52.334 6.2 260 8.4 101070 53
2011-01-14 08:32 51°22.585 2°52.349 9.1 262 8.3 101050 51
2011-01-14 08:33 51°22.811 2°52.356 5.2 262 8.4 101050 53
2011-01-14 08:34 51°23.038 2°52.355 10.4 258 8.3 101030 52
2011-01-14 08:35 51°23.265 2°52.358 3.6 266 8.3 101040 52
2011-01-14 08:36 51°23.493 2°52.384 4.1 263 8.3 101040 54
2011-01-14 08:37 51°23.722 2°52.407 4.5 260 8.3 101050 52
2011-01-14 08:38 51°23.949 2°52.411 5.6 263 8.3 101040 51
2011-01-14 08:39 51°24.174 2°52.401 7.1 261 8.3 101050 54
2011-01-14 08:40 51°24.398 2°52.417 5.8 266 8.3 101050 51
2011-01-14 08:41 51°24.623 2°52.431 8.3 258 8.3 101040 54
2011-01-14 08:42 51°24.851 2°52.447 6 261 8.3 101050 53
2011-01-14 08:43 51°25.078 2°52.47 3.8 259 8.3 101040 52
2011-01-14 08:44 51°25.306 2°52.497 6.5 265 8.3 101050 52
2011-01-14 08:45 51°25.533 2°52.501 6.4 264 8.4 101050 52
2011-01-14 08:46 51°25.759 2°52.516 8.6 262 8.3 101040 52
2011-01-14 08:47 51°25.986 2°52.522 7.6 264 8.3 101040 53
2011-01-14 08:48 51°26.213 2°52.523 6.6 260 8.3 101030 52
2011-01-14 08:49 51°26.437 2°52.516 9.1 260 8.3 101020 53
2011-01-14 08:50 51°26.662 2°52.5 7.9 263 8.3 101040 52
2011-01-14 08:51 51°26.887 2°52.502 8.5 267 8.4 101040 54
2011-01-14 08:52 51°27.115 2°52.518 6.5 266 8.4 101030 54
2011-01-14 08:53 51°27.342 2°52.586 7.9 16 8.4 101030 53
2011-01-14 08:54 51°27.566 2°52.662 8.9 270 8.4 101030 53
2011-01-14 08:55 51°27.795 2°52.705 6.6 268 8.5 101010 54
2011-01-14 08:56 51°28.023 2°52.74 7.8 264 8.4 100990 52
2011-01-14 08:57 51°28.25 2°52.755 11 270 8.4 101000 53
2011-01-14 08:58 51°28.475 2°52.773 11.1 264 8.4 101010 52
2011-01-14 08:59 51°28.697 2°52.783 10.6 270 8.4 101010 54
2011-01-14 09:00 51°28.921 2°52.784 10.2 259 8.4 101000 53
2011-01-14 09:01 51°29.143 2°52.721 13.8 261 8.5 100990 53
2011-01-14 09:02 51°29.359 2°52.648 13.3 256 8.4 101000 52
2011-01-14 09:03 51°29.581 2°52.59 14.7 255 8.4 101000 53
2011-01-14 09:04 51°29.802 2°52.521 16.1 252 8.4 100990 52
2011-01-14 09:05 51°30.019 2°52.449 16.5 258 8.5 100990 53
2011-01-14 09:06 51°30.238 2°52.373 13.3 253 8.5 100990 53
2011-01-14 09:07 51°30.459 2°52.307 14.6 250 8.5 100990 53
2011-01-14 09:08 51°30.673 2°52.218 15.2 256 8.5 101000 52
2011-01-14 09:09 51°30.834 2°52.155 10.2 263 8.4 101000 53
2011-01-14 09:10 51°30.942 2°52.127 13.8 260 8.5 101010 52
2011-01-14 09:11 51°31.022 2°52.114 14.7 261 8.4 101000 53
2011-01-14 09:12 51°31.068 2°52.12 13.1 257 8.4 101000 52
2011-01-14 09:13 51°31.099 2°52.145 13.8 256 8.4 100990 52
2011-01-14 09:14 51°31.127 2°52.176 17 254 8.4 100990 52
2011-01-14 09:15 51°31.153 2°52.21 7.5 264 8.4 101000 52
2011-01-14 09:16 51°31.176 2°52.249 11.7 262 8.4 101000 52
2011-01-14 09:17 51°31.2 2°52.287 10.4 267 8.4 101030 53
2011-01-14 09:18 51°31.224 2°52.324 10.6 263 8.4 101020 52
2011-01-14 09:19 51°31.248 2°52.359 11.1 263 8.4 101000 52
2011-01-14 09:20 51°31.272 2°52.395 8.9 267 8.4 101010 52
2011-01-14 09:21 51°31.294 2°52.433 10.7 258 8.4 101010 53
2011-01-14 09:22 51°31.317 2°52.469 11.3 260 8.4 101000 52
2011-01-14 09:23 51°31.341 2°52.505 12 261 8.3 101000 52
2011-01-14 09:24 51°31.364 2°52.542 11 260 8.3 100990 52
2011-01-14 09:25 51°31.386 2°52.579 6.5 261 8.3 101010 53
2011-01-14 09:26 51°31.409 2°52.615 7.5 263 8.3 100990 53
2011-01-14 09:27 51°31.433 2°52.651 10.1 263 8.3 100990 53
2011-01-14 09:28 51°31.459 2°52.683 11.5 267 8.3 100990 52
2011-01-14 09:29 51°31.484 2°52.715 9 263 8.3 100990 53
2011-01-14 09:30 51°31.511 2°52.748 15.1 261 8.4 100990 54
2011-01-14 09:31 51°31.537 2°52.782 14.4 260 8.3 101020 53
2011-01-14 09:32 51°31.562 2°52.818 14.8 259 8.3 100980 52
2011-01-14 09:33 51°31.586 2°52.855 7.2 263 8.3 101000 52
2011-01-14 09:34 51°31.611 2°52.887 7.6 263 8.3 100990 53
2011-01-14 09:35 51°31.638 2°52.919 9 263 8.3 100980 53
2011-01-14 09:36 51°31.665 2°52.949 15.4 261 8.3 101000 52
2011-01-14 09:37 51°31.693 2°52.976 13.2 258 8.3 101020 52
2011-01-14 09:38 51°31.718 2°53.005 13.8 258 8.3 101030 53
2011-01-14 09:39 51°31.742 2°53.038 17.5 259 8.2 101030 53
2011-01-14 09:40 51°31.767 2°53.076 10.2 264 8.3 101000 52
2011-01-14 09:41 51°31.79 2°53.112 9.5 267 8.3 101000 53
2011-01-14 09:42 51°31.813 2°53.148 13.1 263 8.3 101010 54
2011-01-14 09:43 51°31.838 2°53.183 8.4 264 8.3 101000 53
2011-01-14 09:44 51°31.864 2°53.213 10.4 261 8.2 101000 51
2011-01-14 09:45 51°31.892 2°53.241 9 266 8.2 100990 52
2011-01-14 09:46 51°31.919 2°53.267 8.8 261 8.2 101000 52
2011-01-14 09:47 51°31.946 2°53.294 11.7 262 8.2 101000 53
2011-01-14 09:48 51°31.974 2°53.322 11.4 260 8.2 101010 53
2011-01-14 09:49 51°32 2°53.351 14.2 259 8.2 101000 53
2011-01-14 09:50 51°32.025 2°53.383 9 262 8.2 101010 52
2011-01-14 09:51 51°32.049 2°53.414 10 260 8.2 101000 53
2011-01-14 09:52 51°32.074 2°53.446 12.5 262 8.1 101000 53
2011-01-14 09:53 51°32.098 2°53.477 9.5 266 8.1 100990 52
2011-01-14 09:54 51°32.133 2°53.49 13.7 255 8.1 101050 53
2011-01-14 09:55 51°32.166 2°53.454 12.2 27 8.1 100980 52
2011-01-14 09:56 51°32.165 2°53.41 11.7 332 8.1 100990 52
2011-01-14 09:57 51°32.123 2°53.327 17.1 327 8.2 101010 53
2011-01-14 09:58 51°32.05 2°53.175 18.6 329 8.2 100970 53
2011-01-14 09:59 51°31.974 2°53.012 16.6 327 8.2 100930 54
2011-01-14 10:00 51°31.89 2°52.841 17.4 327 8.2 101000 52
2011-01-14 10:01 51°31.83 2°52.712 13.2 328 8.2 101000 53
2011-01-14 10:02 51°31.805 2°52.647 14 328 8.1 100960 53
2011-01-14 10:03 51°31.78 2°52.585 16 327 8.1 101020 53
2011-01-14 10:04 51°31.742 2°52.492 14.1 324 8.1 101000 53
2011-01-14 10:05 51°31.708 2°52.362 14.6 320 8.1 100950 53
2011-01-14 10:06 51°31.706 2°52.269 12.7 23 8.1 100950 53
2011-01-14 10:07 51°31.718 2°52.212 11.9 316 8.2 100960 53
2011-01-14 10:08 51°31.726 2°52.134 11.6 23 8.2 100980 52
2011-01-14 10:09 51°31.749 2°52.114 10 23 8.1 100990 53
2011-01-14 10:10 51°31.78 2°52.119 12.5 254 8.1 101030 53
2011-01-14 10:11 51°31.807 2°52.138 13.2 260 8.1 101050 53
2011-01-14 10:12 51°31.832 2°52.165 7.9 264 8.1 101040 53
2011-01-14 10:13 51°31.855 2°52.191 8.6 263 8.1 101040 53
2011-01-14 10:14 51°31.891 2°52.189 14.6 24 8.1 101050 53
2011-01-14 10:15 51°31.908 2°52.124 12.3 321 8.2 100990 53
2011-01-14 10:16 51°31.879 2°52.063 16.2 337 8.2 101010 52
2011-01-14 10:17 51°31.833 2°52.041 12.7 341 8.2 101020 52
2011-01-14 10:18 51°31.819 2°52.042 12.6 331 8.1 101010 53
2011-01-14 10:19 51°31.82 2°52.039 10.9 330 8.1 100990 53
2011-01-14 10:20 51°31.803 2°52.015 11.1 345 8.2 101020 54
2011-01-14 10:21 51°31.805 2°52.035 10.5 353 8.2 101000 53
2011-01-14 10:22 51°31.801 2°52.062 11.5 351 8.1 101020 52
2011-01-14 10:23 51°31.795 2°52.081 10.5 347 8.1 101010 54
2011-01-14 10:24 51°31.802 2°52.107 11 353 8 101010 53
2011-01-14 10:25 51°31.823 2°52.137 12.3 7 8 101020 53
2011-01-14 10:26 51°31.845 2°52.164 9.4 17 8 101020 53
2011-01-14 10:27 51°31.866 2°52.195 11.7 20 8 101050 53
2011-01-14 10:28 51°31.853 2°52.241 10.1 354 8 100990 53
2011-01-14 10:29 51°31.823 2°52.233 14.3 326 8 101020 54
2011-01-14 10:30 51°31.802 2°52.178 10.5 336 8 101020 53
2011-01-14 10:31 51°31.779 2°52.145 12.7 317 8.1 101030 54
2011-01-14 10:32 51°31.8 2°52.099 12.7 252 8 101000 52
2011-01-14 10:33 51°31.824 2°52.113 7.6 264 8 101010 53
2011-01-14 10:34 51°31.827 2°52.149 12.4 24 8 101010 53
2011-01-14 10:35 51°31.838 2°52.177 13.5 23 8 101000 54
2011-01-14 10:36 51°31.857 2°52.203 11.2 268 8 101000 54
2011-01-14 10:37 51°31.877 2°52.229 8.8 262 8 101010 53
2011-01-14 10:38 51°31.897 2°52.254 8.7 264 8 101000 53
2011-01-14 10:39 51°31.917 2°52.281 12.3 261 7.9 101000 52
2011-01-14 10:40 51°31.955 2°52.276 12.9 254 7.9 101000 52
2011-01-14 10:41 51°32.051 2°52.156 12.9 250 8 100980 53
2011-01-14 10:42 51°32.196 2°52 12.4 19 8 100990 53
2011-01-14 10:43 51°32.359 2°51.871 13.4 254 8 100990 53
2011-01-14 10:44 51°32.529 2°51.768 4.4 254 8 101000 54
2011-01-14 10:45 51°32.702 2°51.669 11.8 257 8 101000 53
2011-01-14 10:46 51°32.872 2°51.566 11.9 255 8 101000 53
2011-01-14 10:47 51°33.003 2°51.489 7 265 8 100980 53
2011-01-14 10:48 51°33.088 2°51.495 10.9 270 8 101000 52
2011-01-14 10:49 51°33.104 2°51.516 10 267 7.9 100990 54
2011-01-14 10:50 51°33.113 2°51.543 11.6 24 7.9 101040 54
2011-01-14 10:51 51°33.124 2°51.57 12 22 7.9 101030 54
2011-01-14 10:52 51°33.13 2°51.597 11.6 24 8 101040 54
2011-01-14 10:53 51°33.142 2°51.622 12.2 26 8 101040 53
2011-01-14 10:54 51°33.15 2°51.647 11.8 21 8 101030 53
2011-01-14 10:55 51°33.168 2°51.671 9.7 267 7.9 101020 54
2011-01-14 10:56 51°33.188 2°51.69 10.4 263 8 101010 52
2011-01-14 10:57 51°33.208 2°51.709 16.1 256 8 101030 54
2011-01-14 10:58 51°33.238 2°51.681 12.2 25 7.9 101000 53
2011-01-14 10:59 51°33.252 2°51.639 14.2 326 8 101010 53
2011-01-14 11:00 51°33.22 2°51.611 14.6 340 8 100990 54
2011-01-14 11:01 51°33.152 2°51.574 16.5 344 8 101020 54
2011-01-14 11:02 51°33.113 2°51.577 13.9 354 8 100990 54
2011-01-14 11:03 51°33.124 2°51.607 9 5 8 100990 54
2011-01-14 11:04 51°33.135 2°51.637 14.2 17 8 100990 52
2011-01-14 11:05 51°33.153 2°51.659 10.9 26 7.9 101030 53
2011-01-14 11:06 51°33.173 2°51.683 6.8 26 8 101030 54
2011-01-14 11:07 51°33.191 2°51.707 12.5 26 8 101010 54
2011-01-14 11:08 51°33.204 2°51.737 14.8 14 8 101030 54
2011-01-14 11:09 51°33.19 2°51.774 16.9 353 7.9 101040 54
2011-01-14 11:10 51°33.159 2°51.778 12.6 335 7.9 100970 54
2011-01-14 11:11 51°33.135 2°51.74 10.8 330 8 100980 53
2011-01-14 11:12 51°33.109 2°51.694 14.9 335 8 101000 53
2011-01-14 11:13 51°33.105 2°51.657 15.8 21 8 100990 54
2011-01-14 11:14 51°33.13 2°51.651 10.8 20 8 100970 54
2011-01-14 11:15 51°33.156 2°51.653 15.2 251 8 101000 54
2011-01-14 11:16 51°33.177 2°51.672 13.5 262 8 100990 54
2011-01-14 11:17 51°33.195 2°51.694 8.6 261 8 101030 54
2011-01-14 11:18 51°33.213 2°51.718 10.9 263 8 101010 53
2011-01-14 11:19 51°33.227 2°51.744 7.9 263 8 101010 54
2011-01-14 11:20 51°33.246 2°51.768 9.8 263 8 101000 54
2011-01-14 11:21 51°33.28 2°51.742 13.4 25 7.9 101010 53
2011-01-14 11:22 51°33.299 2°51.687 9.6 321 7.9 100980 53
2011-01-14 11:23 51°33.285 2°51.671 14.9 357 8 101000 54
2011-01-14 11:24 51°33.273 2°51.698 11.4 351 8 100990 53
2011-01-14 11:25 51°33.25 2°51.712 13.6 347 8 100990 54
2011-01-14 11:26 51°33.217 2°51.711 11.5 337 8 100990 54
2011-01-14 11:27 51°33.177 2°51.672 16 337 8.1 101000 53
2011-01-14 11:28 51°33.164 2°51.674 11.9 347 8.1 101010 53
2011-01-14 11:29 51°33.161 2°51.693 12.2 350 8 100990 53
2011-01-14 11:30 51°33.148 2°51.696 12.4 328 8 100990 54
2011-01-14 11:31 51°33.142 2°51.662 11.5 320 8.1 101010 53
2011-01-14 11:32 51°33.146 2°51.63 10.7 326 8.1 100980 54
2011-01-14 11:33 51°33.145 2°51.625 10.9 351 8.1 101000 53
2011-01-14 11:34 51°33.127 2°51.652 15.2 351 8 100980 54
2011-01-14 11:35 51°33.111 2°51.675 12.5 349 8 101000 53
2011-01-14 11:36 51°33.089 2°51.674 14.7 327 8 101000 53
2011-01-14 11:37 51°33.093 2°51.666 12.1 24 8 101010 53
2011-01-14 11:38 51°33.116 2°51.659 11.7 247 8.1 100980 54
2011-01-14 11:39 51°33.142 2°51.657 20.6 252 8 101020 54
2011-01-14 11:40 51°33.165 2°51.666 14 253 8 101020 54
2011-01-14 11:41 51°33.185 2°51.682 14.7 257 8 101020 53
2011-01-14 11:42 51°33.203 2°51.702 11.8 262 7.9 101020 54
2011-01-14 11:43 51°33.229 2°51.716 14 261 7.9 101000 52
2011-01-14 11:44 51°33.289 2°51.69 8 262 7.9 101000 53
2011-01-14 11:45 51°33.381 2°51.688 8.1 23 7.9 101010 54
2011-01-14 11:46 51°33.488 2°51.744 8 25 7.9 101020 53
2011-01-14 11:47 51°33.592 2°51.829 8.1 22 7.9 101020 53
2011-01-14 11:48 51°33.705 2°51.949 7.3 27 8 101020 52
2011-01-14 11:49 51°33.831 2°52.079 7.4 24 8 101030 54
2011-01-14 11:50 51°33.96 2°52.213 8.1 25 8 101010 52
2011-01-14 11:51 51°34.075 2°52.329 8.7 25 8 101010 53
2011-01-14 11:52 51°34.143 2°52.367 9.8 22 8 101000 52
2011-01-14 11:53 51°34.195 2°52.419 12.6 21 8 101010 52
2011-01-14 11:54 51°34.212 2°52.483 11 32 8 100990 54
2011-01-14 11:55 51°34.218 2°52.52 12.1 27 7.9 101000 52
2011-01-14 11:56 51°34.225 2°52.549 10.5 24 8 101010 53
2011-01-14 11:57 51°34.233 2°52.575 12.4 18 8 100970 53
2011-01-14 11:58 51°34.243 2°52.598 12 19 8 101000 53
2011-01-14 11:59 51°34.246 2°52.633 12.3 14 8 100970 53
2011-01-14 12:00 51°34.178 2°52.677 14.6 348 8 100950 51
2011-01-14 12:01 51°34.063 2°52.567 17.6 333 8.1 100970 53
2011-01-14 12:02 51°33.975 2°52.319 15.3 318 8.1 100980 53
2011-01-14 12:03 51°33.99 2°52.007 15.7 21 8.1 100920 53
2011-01-14 12:04 51°34.019 2°51.686 16.1 24 8.1 100920 53
2011-01-14 12:05 51°34.043 2°51.363 15.7 21 8.1 100930 53
2011-01-14 12:06 51°33.985 2°51.067 17.1 326 8.1 100960 53
2011-01-14 12:07 51°33.857 2°50.821 19.5 332 8.2 100960 53
2011-01-14 12:08 51°33.698 2°50.622 18 334 8.1 100950 53
2011-01-14 12:09 51°33.542 2°50.422 19.5 333 8.1 100940 53
2011-01-14 12:10 51°33.393 2°50.223 16.9 331 8.1 100940 53
2011-01-14 12:11 51°33.235 2°50.039 15.1 337 8.1 100950 54
2011-01-14 12:12 51°33.05 2°49.94 17.2 341 8.1 100920 53
2011-01-14 12:13 51°32.861 2°49.838 21 342 8.1 100920 53
2011-01-14 12:14 51°32.675 2°49.736 15 341 8 100950 54
2011-01-14 12:15 51°32.494 2°49.627 16.8 337 8 100920 53
2011-01-14 12:16 51°32.312 2°49.515 20.4 343 8 100990 53
2011-01-14 12:17 51°32.126 2°49.4 16.2 341 8 100940 54
2011-01-14 12:18 51°31.942 2°49.29 8.7 342 8 100950 54
2011-01-14 12:19 51°31.757 2°49.181 9.5 342 8 100940 54
2011-01-14 12:20 51°31.573 2°49.073 19.2 342 8 100940 53
2011-01-14 12:21 51°31.389 2°48.963 14.8 338 8 100940 54
2011-01-14 12:22 51°31.201 2°48.847 15.6 340 8 100950 53
2011-01-14 12:23 51°31.016 2°48.739 17.4 340 8 100940 54
2011-01-14 12:24 51°30.832 2°48.631 16.5 340 8 100980 54
2011-01-14 12:25 51°30.648 2°48.516 16.9 338 8 100940 54
2011-01-14 12:26 51°30.463 2°48.401 19.5 338 8 100940 54
2011-01-14 12:27 51°30.277 2°48.293 16.9 339 8 100970 54
2011-01-14 12:28 51°30.089 2°48.177 18 341 8 100960 54
2011-01-14 12:29 51°29.901 2°48.057 22.8 340 8 100920 54
2011-01-14 12:30 51°29.711 2°47.942 16 339 8 100940 54
2011-01-14 12:31 51°29.525 2°47.826 16.6 339 8.1 100920 54
2011-01-14 12:32 51°29.333 2°47.707 16.4 339 8.1 100920 53
2011-01-14 12:33 51°29.142 2°47.586 15.1 340 8 100920 54
2011-01-14 12:34 51°28.952 2°47.479 17.8 339 8 100950 53
2011-01-14 12:35 51°28.763 2°47.365 17.5 339 8 100910 54
2011-01-14 12:36 51°28.572 2°47.24 15.2 336 8 100940 54
2011-01-14 12:37 51°28.382 2°47.119 15.9 338 8 100940 53
2011-01-14 12:38 51°28.192 2°46.998 17.8 337 8 100930 53
2011-01-14 12:39 51°28.005 2°46.88 14.8 338 7.9 100940 54
2011-01-14 12:40 51°27.814 2°46.748 16.3 338 7.9 100950 53
2011-01-14 12:41 51°27.639 2°46.567 14.8 333 7.9 100970 53
2011-01-14 12:42 51°27.467 2°46.378 16.9 334 7.9 100960 54
2011-01-14 12:43 51°27.293 2°46.192 15.7 333 7.9 100960 54
2011-01-14 12:44 51°27.117 2°46.01 18.7 334 7.9 100960 54
2011-01-14 12:45 51°26.942 2°45.824 18.3 334 7.9 100950 53
2011-01-14 12:46 51°26.768 2°45.644 16.7 332 7.9 100940 54
2011-01-14 12:47 51°26.591 2°45.46 15.7 334 7.9 100960 54
2011-01-14 12:48 51°26.414 2°45.278 15.6 337 7.9 100950 53
2011-01-14 12:49 51°26.238 2°45.097 15.1 335 7.9 100970 53
2011-01-14 12:50 51°26.063 2°44.918 16.5 334 8 100960 55
2011-01-14 12:51 51°25.888 2°44.738 16.6 336 8 100950 54
2011-01-14 12:52 51°25.71 2°44.553 15.7 335 8 100940 54
2011-01-14 12:53 51°25.533 2°44.373 14.9 335 8 100950 53
2011-01-14 12:54 51°25.357 2°44.192 14.6 337 8 100970 54
2011-01-14 12:55 51°25.182 2°44.013 17.7 335 8 100950 54
2011-01-14 12:56 51°24.998 2°43.91 13.4 347 8 100930 54
2011-01-14 12:57 51°24.896 2°43.879 14.4 342 8 100960 52
2011-01-14 12:58 51°24.831 2°43.845 11.8 341 8 100950 54
2011-01-14 12:59 51°24.778 2°43.817 13 342 8 100950 54
2011-01-14 13:00 51°24.743 2°43.802 11 343 8 100970 55
2011-01-14 13:01 51°24.714 2°43.79 13.7 333 8 100970 54
2011-01-14 13:02 51°24.696 2°43.749 11.1 318 8 100940 54
2011-01-14 13:03 51°24.697 2°43.724 9.4 327 8.1 100980 53
2011-01-14 13:04 51°24.684 2°43.713 12.2 355 8.1 100970 54
2011-01-14 13:05 51°24.671 2°43.727 12.9 359 8.1 100960 53
2011-01-14 13:06 51°24.678 2°43.74 11.8 12 8 100970 52
2011-01-14 13:07 51°24.686 2°43.751 10.9 27 8 101000 53
2011-01-14 13:08 51°24.693 2°43.764 10.4 25 8 100980 52
2011-01-14 13:09 51°24.704 2°43.768 9.3 32 8 100990 54
2011-01-14 13:10 51°24.72 2°43.742 4.4 34 8 100970 52
2011-01-14 13:11 51°24.732 2°43.704 10.9 41 8 100970 52
2011-01-14 13:12 51°24.737 2°43.662 12.1 42 8 100970 53
2011-01-14 13:13 51°24.731 2°43.71 12.2 18 8 100960 54
2011-01-14 13:14 51°24.683 2°43.742 9 345 8 100950 54
2011-01-14 13:15 51°24.645 2°43.681 10.8 23 8 100960 54
2011-01-14 13:16 51°24.659 2°43.64 11.8 256 8.1 100940 52
2011-01-14 13:17 51°24.662 2°43.647 7.5 263 8 100980 52
2011-01-14 13:18 51°24.666 2°43.657 7.3 264 8 100990 55
2011-01-14 13:19 51°24.666 2°43.671 6.6 265 8 100970 53
2011-01-14 13:20 51°24.667 2°43.683 8.3 270 8 100980 55
2011-01-14 13:21 51°24.671 2°43.695 8.2 267 8.1 100980 55
2011-01-14 13:22 51°24.676 2°43.706 7.2 265 8.1 100980 55
2011-01-14 13:23 51°24.682 2°43.716 6.2 263 8 100970 54
2011-01-14 13:24 51°24.689 2°43.725 9.8 263 8.1 100980 54
2011-01-14 13:25 51°24.695 2°43.734 6.7 266 8.1 100990 52
2011-01-14 13:26 51°24.697 2°43.749 9.4 270 8.1 100980 53
2011-01-14 13:27 51°24.679 2°43.77 9.6 25 8.1 100980 54
2011-01-14 13:28 51°24.656 2°43.773 14.1 25 8.1 100990 53
2011-01-14 13:29 51°24.652 2°43.779 14.4 24 8.3 100990 54
2011-01-14 13:30 51°24.698 2°43.749 15 22 8.3 100970 54
2011-01-14 13:31 51°24.71 2°43.669 15.2 22 8.3 100950 54
2011-01-14 13:32 51°24.7 2°43.619 10.4 328 8.3 100910 54
2011-01-14 13:33 51°24.689 2°43.608 11.3 348 8.3 100930 53
2011-01-14 13:34 51°24.692 2°43.618 8.9 6 8.1 100930 54
2011-01-14 13:35 51°24.683 2°43.641 12.5 10 8.1 100920 53
2011-01-14 13:36 51°24.679 2°43.659 14.9 13 8.1 100940 53
2011-01-14 13:37 51°24.67 2°43.681 10.8 8 8.1 100950 53
2011-01-14 13:38 51°24.668 2°43.694 11.6 13 8.1 100960 54
2011-01-14 13:39 51°24.668 2°43.71 11 11 8 100960 52
2011-01-14 13:40 51°24.668 2°43.723 8.9 18 7.9 100940 53
2011-01-14 13:41 51°24.671 2°43.734 9.1 14 7.9 100960 54
2011-01-14 13:42 51°24.674 2°43.745 9 17 7.8 100960 53
2011-01-14 13:43 51°24.676 2°43.757 10 18 7.9 100950 54
2011-01-14 13:44 51°24.678 2°43.769 12 19 7.9 100960 54
2011-01-14 13:45 51°24.678 2°43.784 9.6 17 7.9 100960 53
2011-01-14 13:46 51°24.675 2°43.869 2.3 26 8 100950 52
2011-01-14 13:47 51°24.746 2°43.859 14.4 20 8 100930 54
2011-01-14 13:48 51°24.752 2°43.755 10.4 327 8 100930 53
2011-01-14 13:49 51°24.717 2°43.717 10.3 346 8.1 100930 54
2011-01-14 13:50 51°24.675 2°43.709 10.8 346 8 100920 53
2011-01-14 13:51 51°24.676 2°43.721 9.9 1 8 100930 54
2011-01-14 13:52 51°24.685 2°43.731 9.4 16 8 100940 53
2011-01-14 13:53 51°24.691 2°43.739 11.4 22 7.9 100970 54
2011-01-14 13:54 51°24.697 2°43.748 13 24 8 100950 53
2011-01-14 13:55 51°24.7 2°43.76 10.3 26 8.1 100930 54
2011-01-14 13:56 51°24.702 2°43.774 12.1 22 8.1 100930 53
2011-01-14 13:57 51°24.702 2°43.787 13.5 19 8.1 100940 53
2011-01-14 13:58 51°24.703 2°43.802 13 20 8.1 100930 53
2011-01-14 13:59 51°24.705 2°43.818 12.6 21 8.1 100930 54
2011-01-14 14:00 51°24.707 2°43.833 10 23 8.1 100930 53
2011-01-14 14:01 51°24.708 2°43.85 11.5 20 8.1 100940 53
2011-01-14 14:02 51°24.71 2°43.865 5.8 20 8.1 100940 54
2011-01-14 14:03 51°24.689 2°43.906 11.8 14 8 100940 54
2011-01-14 14:04 51°24.621 2°44.015 11.5 24 8 100940 52
2011-01-14 14:05 51°24.581 2°44.225 9.5 26 8 100950 52
2011-01-14 14:06 51°24.551 2°44.457 7 25 8 100950 54
2011-01-14 14:07 51°24.515 2°44.66 8.4 18 8 100940 52
2011-01-14 14:08 51°24.461 2°44.814 9.7 22 7.9 100940 53
2011-01-14 14:09 51°24.414 2°44.941 9.4 20 7.9 100930 53
2011-01-14 14:10 51°24.372 2°45.07 9.5 18 7.8 100950 53
2011-01-14 14:11 51°24.313 2°45.258 9.4 17 7.8 100950 53
2011-01-14 14:12 51°24.23 2°45.518 7.2 7 7.7 100950 53
2011-01-14 14:13 51°24.093 2°45.772 12.5 359 7.7 100950 52
2011-01-14 14:14 51°23.917 2°45.964 13.1 3 7.8 100920 53
2011-01-14 14:15 51°23.739 2°46.152 12.7 359 7.9 100930 53
2011-01-14 14:16 51°23.556 2°46.334 11.6 -999 7.9 100930 53
2011-01-14 14:17 51°23.386 2°46.529 15.5 2 8 100930 53
2011-01-14 14:18 51°23.205 2°46.714 16.7 1 8 100930 53
2011-01-14 14:19 51°23.021 2°46.889 14.4 359 7.9 100930 53
2011-01-14 14:20 51°22.83 2°47.048 11.7 358 7.8 100940 54
2011-01-14 14:21 51°22.637 2°47.205 11.5 357 7.8 100940 54
2011-01-14 14:22 51°22.439 2°47.35 12.7 357 7.7 100950 52
2011-01-14 14:23 51°22.224 2°47.397 12.3 347 7.7 100950 53
2011-01-14 14:24 51°22.003 2°47.375 14.5 348 7.7 100950 54
2011-01-14 14:25 51°21.791 2°47.376 15.4 351 7.8 100950 54
2011-01-14 14:26 51°21.575 2°47.418 12.7 352 7.8 100950 54
2011-01-14 14:27 51°21.369 2°47.515 20.6 356 7.8 100950 54
2011-01-14 14:28 51°21.18 2°47.674 11.4 1 7.9 100960 54
2011-01-14 14:29 51°21.004 2°47.867 21 358 7.9 100950 54
2011-01-14 14:30 51°20.825 2°48.055 10.5 1 7.9 100950 54
2011-01-14 14:31 51°20.643 2°48.241 16.3 -999 7.8 100940 54
2011-01-14 14:32 51°20.46 2°48.421 12.6 2 7.8 100970 54
2011-01-14 14:33 51°20.276 2°48.606 13.3 5 7.7 100980 53
2011-01-14 14:34 51°20.089 2°48.779 11 1 7.7 100970 54
2011-01-14 14:35 51°19.902 2°48.951 15.2 1 7.8 100950 53
2011-01-14 14:36 51°19.721 2°49.132 16 1 7.9 100950 54
2011-01-14 14:37 51°19.539 2°49.314 13 359 7.8 100940 53
2011-01-14 14:38 51°19.356 2°49.491 11.5 359 7.9 100960 54
2011-01-14 14:39 51°19.171 2°49.668 13.9 358 7.7 100970 53
2011-01-14 14:40 51°18.993 2°49.857 14.2 360 7.7 100990 54
2011-01-14 14:41 51°18.812 2°50.044 13.2 2 7.8 100980 53
2011-01-14 14:42 51°18.635 2°50.238 13.3 1 7.8 100970 54
2011-01-14 14:43 51°18.468 2°50.454 13.1 360 7.9 100980 53
2011-01-14 14:44 51°18.319 2°50.7 13.7 2 7.9 100970 53
2011-01-14 14:45 51°18.179 2°50.959 12.4 6 7.8 100970 54
2011-01-14 14:46 51°18.027 2°51.205 11.8 8 7.9 100980 53
2011-01-14 14:47 51°17.885 2°51.458 10.4 7 7.9 100980 53
2011-01-14 14:48 51°17.733 2°51.705 12.5 8 8 100980 54
2011-01-14 14:49 51°17.577 2°51.942 9.6 1 7.9 101000 54
2011-01-14 14:50 51°17.394 2°52.133 10.7 359 7.8 101000 53
2011-01-14 14:51 51°17.202 2°52.31 13.3 356 7.9 100990 53
2011-01-14 14:52 51°17.019 2°52.487 16.3 359 8 100980 53
2011-01-14 14:53 51°16.826 2°52.643 16 355 8.1 100970 53
2011-01-14 14:54 51°16.627 2°52.798 15.2 356 8.1 100970 54
2011-01-14 14:55 51°16.437 2°52.957 15 358 8.1 100960 53
2011-01-14 14:56 51°16.246 2°53.117 15.6 357 8.2 100970 54
2011-01-14 14:57 51°16.054 2°53.273 16.1 357 8.2 100980 54
2011-01-14 14:58 51°15.863 2°53.432 14.2 3 8.5 100960 55
2011-01-14 14:59 51°15.684 2°53.623 13.2 6 8.4 101000 55
2011-01-14 15:00 51°15.524 2°53.853 7.5 8 8.2 101020 53
2011-01-14 15:01 51°15.357 2°54.07 8.9 2 8.1 101020 54
2011-01-14 15:02 51°15.178 2°54.265 15.4 2 8.3 100990 53
2011-01-14 15:03 51°15.009 2°54.468 15.2 3 8.4 100990 55
2011-01-14 15:04 51°14.836 2°54.669 16.1 2 8.5 100990 55
2011-01-14 15:05 51°14.666 2°54.869 12.5 1 8.6 101000 55
2011-01-14 15:06 51°14.49 2°55.046 12.1 3 8.7 101000 54
2011-01-14 15:07 51°14.329 2°55.219 14.2 14 8.8 101010 54
2011-01-14 15:08 51°14.212 2°55.334 9.2 355 9.2 101010 55
2011-01-14 15:09 51°14.106 2°55.424 4.7 349 9.4 101030 57
2011-01-14 15:10 51°13.987 2°55.519 10.2 350 9.6 101020 57
2011-01-14 15:11 51°13.876 2°55.604 12.5 358 9.7 101030 55
2011-01-14 15:12 51°13.781 2°55.686 9.9 5 9.7 101020 57
2011-01-14 15:13 51°13.73 2°55.775 3 349 9.8 101030 57
2011-01-14 15:14 51°13.694 2°55.856 6 6 9.8 101020 57
2011-01-14 15:15 51°13.666 2°55.939 4.3 4 9.8 101020 57
2011-01-14 15:16 51°13.662 2°55.957 5.2 24 9.8 101040 54